Time;durP1;ratioP1;P1;durP2;ratioP2;P2;SDS_P1;SDS_P2;PMS_P1;PMS_P2;Temp;Humidity;BMP_temperature;BMP_pressure;BME280_temperature;BME280_humidity;BME280_pressure;Samples;Min_cycle;Max_cycle;Signal;HPM_P1;HPM_P2
2022/06/01 00:00:08;;;;;;;21.40;15.80;;;22.70;1.00;;;;;;5013198;28;20021;-42
2022/06/01 00:02:34;;;;;;;19.55;16.58;;;22.70;1.00;;;;;;5012030;28;20041;-44
2022/06/01 00:04:59;;;;;;;18.70;15.57;;;22.70;1.00;;;;;;5004141;28;20030;-45
2022/06/01 00:07:25;;;;;;;21.20;18.90;;;22.70;1.00;;;;;;5005761;28;20046;-44
2022/06/01 00:09:53;;;;;;;18.00;15.23;;;22.80;1.00;;;;;;5002037;28;20052;-42
2022/06/01 00:12:19;;;;;;;16.70;15.00;;;22.70;1.00;;;;;;5011464;28;20084;-46
2022/06/01 00:14:44;;;;;;;19.08;16.35;;;22.80;1.00;;;;;;5032050;28;20027;-41
2022/06/01 00:17:10;;;;;;;22.05;17.55;;;22.80;1.00;;;;;;5011688;28;20046;-42
2022/06/01 00:19:37;;;;;;;16.67;15.02;;;22.80;1.00;;;;;;5012297;28;20513;-45
2022/06/01 00:22:11;;;;;;;23.13;16.58;;;22.80;1.00;;;;;;5010522;28;20034;-47
2022/06/01 00:24:38;;;;;;;21.40;18.38;;;22.80;1.00;;;;;;4999190;28;20037;-43
2022/06/01 00:27:08;;;;;;;17.35;15.52;;;22.80;1.00;;;;;;5004030;28;20445;-41
2022/06/01 00:29:34;;;;;;;20.40;14.52;;;22.70;1.00;;;;;;5012877;28;20096;-41
2022/06/01 00:32:00;;;;;;;27.63;22.33;;;22.60;1.00;;;;;;5011500;28;20412;-42
2022/06/01 00:34:26;;;;;;;24.77;20.30;;;22.70;1.00;;;;;;5003174;28;20041;-44
2022/06/01 00:36:51;;;;;;;19.92;16.13;;;22.70;1.00;;;;;;5011747;28;20018;-44
2022/06/01 00:39:18;;;;;;;25.17;20.13;;;22.70;1.00;;;;;;5006676;28;20397;-42
2022/06/01 00:41:43;;;;;;;25.80;21.05;;;22.60;1.00;;;;;;5010507;28;20022;-43
2022/06/01 00:44:09;;;;;;;25.77;19.02;;;22.70;1.00;;;;;;5011441;28;20034;-44
2022/06/01 00:46:35;;;;;;;18.98;16.48;;;22.60;1.00;;;;;;5009138;28;20488;-44
2022/06/01 00:49:17;;;;;;;18.67;15.73;;;22.60;1.00;;;;;;5003836;28;20076;-43
2022/06/01 00:51:44;;;;;;;21.73;18.17;;;22.60;1.00;;;;;;5011237;28;20026;-43
2022/06/01 00:54:11;;;;;;;20.02;15.77;;;22.60;1.00;;;;;;5005820;28;20038;-42
2022/06/01 00:56:42;;;;;;;18.27;14.52;;;22.60;1.00;;;;;;5014501;28;20080;-44
2022/06/01 01:09:34;;;;;;;23.92;20.38;;;22.60;1.00;;;;;;5008228;28;20538;-43
2022/06/01 01:12:08;;;;;;;20.98;14.55;;;22.60;1.00;;;;;;4998168;28;20030;-43
2022/06/01 01:14:38;;;;;;;18.45;16.23;;;22.50;1.00;;;;;;5013059;28;20029;-42
2022/06/01 01:17:05;;;;;;;16.92;15.13;;;22.60;1.00;;;;;;5014564;28;20052;-43
2022/06/01 01:19:46;;;;;;;16.42;14.60;;;22.50;1.00;;;;;;5014902;28;20052;-44
2022/06/01 01:22:31;;;;;;;24.38;17.08;;;22.50;1.00;;;;;;5007605;28;20026;-42
2022/06/01 01:25:16;;;;;;;;;;;22.50;1.00;;;;;;5008346;28;20108;-42
2022/06/01 01:27:42;;;;;;;15.35;13.70;;;22.50;1.00;;;;;;5005119;28;19917;-43
2022/06/01 01:30:26;;;;;;;15.15;13.55;;;22.50;1.00;;;;;;5009272;28;20117;-45
2022/06/01 01:32:52;;;;;;;17.52;15.20;;;22.50;1.00;;;;;;5012684;28;20415;-42
2022/06/01 01:35:19;;;;;;;24.48;17.40;;;22.50;1.00;;;;;;5015164;28;20029;-44
2022/06/01 01:37:45;;;;;;;18.70;16.38;;;22.50;1.00;;;;;;5007722;28;20030;-42
2022/06/01 01:40:11;;;;;;;25.67;19.60;;;22.50;1.00;;;;;;5011774;28;20109;-42
2022/06/01 01:42:38;;;;;;;17.73;13.63;;;22.50;1.00;;;;;;5010105;28;20440;-43
2022/06/01 01:45:26;;;;;;;17.67;15.43;;;22.50;1.00;;;;;;5014950;28;20033;-44
2022/06/01 01:47:53;;;;;;;20.30;17.38;;;22.40;1.00;;;;;;5013250;28;20128;-42
2022/06/01 01:50:20;;;;;;;17.38;15.45;;;22.50;1.00;;;;;;5001685;28;20027;-42
2022/06/01 01:52:46;;;;;;;14.50;12.45;;;22.50;1.00;;;;;;5013832;28;20044;-46
2022/06/01 01:55:18;;;;;;;15.90;14.15;;;22.50;1.00;;;;;;5015457;28;20499;-42
2022/06/01 01:58:02;;;;;;;14.02;12.57;;;22.50;1.00;;;;;;5013004;28;20124;-42
2022/06/01 02:00:28;;;;;;;14.80;13.13;;;22.50;1.00;;;;;;5011516;28;20509;-42
2022/06/01 02:03:18;;;;;;;17.60;14.82;;;22.50;1.00;;;;;;5011943;28;20030;-45
2022/06/01 02:06:09;;;;;;;29.90;19.17;;;22.40;1.00;;;;;;5003403;28;20034;-43
2022/06/01 02:08:53;;;;;;;12.35;11.05;;;22.40;1.00;;;;;;5011123;28;20125;-44
2022/06/01 02:14:30;;;;;;;11.85;10.18;;;22.40;1.00;;;;;;5014625;28;19916;-42
2022/06/01 02:17:06;;;;;;;13.48;10.82;;;22.40;1.00;;;;;;5002507;28;20049;-47
2022/06/01 02:19:52;;;;;;;14.48;10.82;;;22.40;1.00;;;;;;5014475;28;20025;-45
2022/06/01 02:22:18;;;;;;;12.23;10.52;;;22.50;1.00;;;;;;5013745;28;20030;-42
2022/06/01 02:24:45;;;;;;;11.48;10.20;;;22.50;1.00;;;;;;5014409;28;20087;-43
2022/06/01 02:27:13;;;;;;;11.27;10.13;;;22.40;1.00;;;;;;5008415;28;20034;-44
2022/06/01 02:30:09;;;;;;;12.43;11.02;;;22.40;1.00;;;;;;5008393;28;20189;-44
2022/06/01 02:32:37;;;;;;;13.40;10.00;;;22.40;1.00;;;;;;5007806;28;20030;-45
2022/06/01 02:35:05;;;;;;;11.38;10.27;;;22.20;1.00;;;;;;5011919;28;20083;-43
2022/06/01 02:37:33;;;;;;;10.88;9.82;;;22.30;1.00;;;;;;5011828;28;20484;-41
2022/06/01 02:40:00;;;;;;;12.07;10.85;;;22.30;1.00;;;;;;5014092;28;20087;-42
2022/06/01 02:42:26;;;;;;;10.68;9.70;;;22.40;1.00;;;;;;5013241;28;20076;-42
2022/06/01 02:45:04;;;;;;;13.18;10.68;;;22.30;1.00;;;;;;5011708;28;20022;-42
2022/06/01 02:47:32;;;;;;;12.27;11.07;;;22.30;1.00;;;;;;5006079;28;20042;-42
2022/06/01 02:49:58;;;;;;;12.10;10.88;;;22.20;1.00;;;;;;5013118;28;20029;-42
2022/06/01 02:52:25;;;;;;;13.55;10.68;;;22.20;1.00;;;;;;5012952;28;20025;-46
2022/06/01 02:54:52;;;;;;;12.82;11.52;;;22.30;1.00;;;;;;5014269;28;20092;-43
2022/06/01 02:57:18;;;;;;;11.85;10.75;;;22.20;1.00;;;;;;5003725;28;20085;-43
2022/06/01 02:59:43;;;;;;;12.90;11.52;;;22.20;1.00;;;;;;5013971;28;20487;-45
2022/06/01 03:02:09;;;;;;;12.32;11.23;;;22.10;1.00;;;;;;5012333;28;20472;-42
2022/06/01 03:04:37;;;;;;;13.40;12.18;;;22.10;1.00;;;;;;5011536;28;20480;-42
2022/06/01 03:07:03;;;;;;;12.35;11.10;;;22.10;1.00;;;;;;5009793;28;20042;-42
2022/06/01 03:09:29;;;;;;;13.70;11.23;;;22.10;1.00;;;;;;5008085;28;20030;-42
2022/06/01 03:11:54;;;;;;;13.90;11.32;;;22.10;1.00;;;;;;5012740;28;20392;-43
2022/06/01 03:14:20;;;;;;;12.32;11.13;;;22.00;1.00;;;;;;5013470;28;20022;-42
2022/06/01 03:16:46;;;;;;;12.70;11.52;;;22.00;1.00;;;;;;5010953;28;20073;-44
2022/06/01 03:19:12;;;;;;;12.70;11.40;;;22.00;1.00;;;;;;5008916;28;20122;-42
2022/06/01 03:21:37;;;;;;;12.85;11.32;;;22.00;1.00;;;;;;5012432;28;20030;-42
2022/06/01 03:24:05;;;;;;;11.85;10.60;;;22.00;1.00;;;;;;5013698;28;20026;-43
2022/06/01 03:26:31;;;;;;;14.32;11.75;;;22.00;1.00;;;;;;5011920;28;20029;-44
2022/06/01 03:28:57;;;;;;;11.93;10.45;;;22.00;1.00;;;;;;5003547;28;20026;-44
2022/06/01 03:31:22;;;;;;;12.48;11.15;;;21.90;1.00;;;;;;5011019;28;20034;-47
2022/06/01 03:33:48;;;;;;;11.80;10.57;;;21.90;1.00;;;;;;5011351;28;20018;-44
2022/06/01 03:36:14;;;;;;;12.50;11.38;;;21.80;1.00;;;;;;5012186;28;20109;-42
2022/06/01 03:38:39;;;;;;;12.57;11.27;;;21.80;1.00;;;;;;5012939;28;20499;-45
2022/06/01 03:41:05;;;;;;;13.18;11.77;;;21.80;1.00;;;;;;5013518;28;20025;-43
2022/06/01 03:45:55;;;;;;;11.82;10.63;;;21.80;1.00;;;;;;5012233;28;20034;-43
2022/06/01 03:46:17;;;;;;;11.70;10.65;;;21.70;1.00;;;;;;5012085;28;20045;-43
2022/06/01 03:48:43;;;;;;;12.75;11.38;;;21.70;1.00;;;;;;5012342;28;20026;-42
2022/06/01 03:51:09;;;;;;;13.23;11.02;;;21.80;1.00;;;;;;5010239;28;20078;-47
2022/06/01 03:53:34;;;;;;;14.68;11.02;;;21.70;1.00;;;;;;5011859;28;20044;-42
2022/06/01 03:56:02;;;;;;;14.95;11.82;;;21.70;1.00;;;;;;5013086;28;20105;-44
2022/06/01 03:58:28;;;;;;;12.20;10.95;;;21.70;1.00;;;;;;5010178;28;20028;-47
2022/06/01 04:00:54;;;;;;;15.27;10.85;;;21.70;1.00;;;;;;5013236;28;20017;-43
2022/06/01 04:03:19;;;;;;;12.50;11.40;;;21.70;1.00;;;;;;5011143;28;20415;-42
2022/06/01 04:05:45;;;;;;;11.85;10.85;;;21.70;1.00;;;;;;5012891;28;20092;-44
2022/06/01 04:08:11;;;;;;;13.95;11.68;;;21.70;1.00;;;;;;5009682;28;20116;-42
2022/06/01 04:10:39;;;;;;;14.07;11.65;;;21.60;1.00;;;;;;5012867;28;20467;-42
2022/06/01 04:13:05;;;;;;;12.10;10.65;;;21.60;1.00;;;;;;5010691;28;20029;-42
2022/06/01 04:15:31;;;;;;;12.40;10.90;;;21.60;1.00;;;;;;5013178;28;20057;-42
2022/06/01 04:17:57;;;;;;;13.82;10.23;;;21.60;1.00;;;;;;5011674;28;20080;-42
2022/06/01 04:20:23;;;;;;;11.90;10.68;;;21.60;1.00;;;;;;5013338;28;20041;-43
2022/06/01 04:22:49;;;;;;;12.02;10.68;;;21.60;1.00;;;;;;5011628;28;20034;-43
2022/06/01 04:25:17;;;;;;;13.93;10.90;;;21.60;1.00;;;;;;5011616;28;20380;-45
2022/06/01 04:27:44;;;;;;;11.32;10.15;;;21.60;1.00;;;;;;5007825;28;20125;-42
2022/06/01 04:30:13;;;;;;;13.00;10.00;;;21.40;1.00;;;;;;5013659;28;20054;-43
2022/06/01 04:32:39;;;;;;;12.02;10.82;;;21.50;1.00;;;;;;5009456;28;20040;-44
2022/06/01 04:35:06;;;;;;;10.85;9.75;;;21.60;1.00;;;;;;5015111;28;20472;-45
2022/06/01 04:37:31;;;;;;;11.52;10.32;;;21.60;1.00;;;;;;5010887;28;20034;-41
2022/06/01 04:39:57;;;;;;;12.77;11.48;;;21.60;1.00;;;;;;5012868;28;20108;-47
2022/06/01 04:42:23;;;;;;;12.68;10.48;;;21.60;1.00;;;;;;5013773;28;20034;-45
2022/06/01 04:44:49;;;;;;;15.70;10.00;;;21.60;1.00;;;;;;5014865;28;20030;-45
2022/06/01 04:47:14;;;;;;;12.27;10.82;;;21.60;1.00;;;;;;5012402;28;20041;-46
2022/06/01 04:49:40;;;;;;;12.77;11.52;;;21.70;1.00;;;;;;5015225;28;20117;-45
2022/06/01 04:52:07;;;;;;;12.10;9.93;;;21.70;1.00;;;;;;5015361;28;20491;-44
2022/06/01 04:54:33;;;;;;;16.73;12.13;;;21.70;1.00;;;;;;5016196;28;20037;-43
2022/06/01 04:56:59;;;;;;;13.95;12.10;;;21.70;1.00;;;;;;5006403;28;20053;-47
2022/06/01 04:59:25;;;;;;;13.63;11.00;;;21.70;1.00;;;;;;5015588;28;20033;-48
2022/06/01 05:01:51;;;;;;;16.48;12.98;;;21.70;1.00;;;;;;5015229;28;20157;-43
2022/06/01 05:04:16;;;;;;;15.48;12.95;;;21.70;1.00;;;;;;5016048;28;20022;-44
2022/06/01 05:06:42;;;;;;;15.68;11.63;;;21.80;1.00;;;;;;5014309;28;20042;-44
2022/06/01 05:09:08;;;;;;;13.02;11.65;;;21.80;1.00;;;;;;5010587;28;20471;-42
2022/06/01 05:11:34;;;;;;;13.20;11.07;;;21.80;1.00;;;;;;5009696;28;20018;-44
2022/06/01 05:14:00;;;;;;;12.93;11.02;;;21.80;1.00;;;;;;5014941;28;20387;-41
2022/06/01 05:16:26;;;;;;;13.13;11.30;;;21.80;1.00;;;;;;5003677;28;20045;-43
2022/06/01 05:18:51;;;;;;;12.15;11.00;;;21.80;1.00;;;;;;5007049;28;20022;-42
2022/06/01 05:21:17;;;;;;;15.60;12.20;;;21.80;1.00;;;;;;5002112;28;20023;-44
2022/06/01 05:23:42;;;;;;;14.20;11.77;;;21.80;1.00;;;;;;5012882;28;20022;-42
2022/06/01 05:26:08;;;;;;;13.52;11.82;;;21.80;1.00;;;;;;5015666;28;20112;-46
2022/06/01 05:28:34;;;;;;;14.10;12.70;;;21.90;1.00;;;;;;5012770;28;20464;-43
2022/06/01 05:31:06;;;;;;;18.15;15.55;;;21.90;1.00;;;;;;5012524;28;20073;-43
2022/06/01 05:33:33;;;;;;;16.63;14.77;;;21.90;1.00;;;;;;5013216;28;20022;-43
2022/06/01 05:35:59;;;;;;;19.60;17.73;;;21.90;1.00;;;;;;5011388;28;20041;-43
2022/06/01 05:38:24;;;;;;;21.75;18.17;;;22.00;1.00;;;;;;5011704;28;20025;-44
2022/06/01 05:40:51;;;;;;;20.27;18.08;;;22.00;1.00;;;;;;5010265;28;20033;-43
2022/06/01 05:43:17;;;;;;;22.70;18.42;;;21.80;1.00;;;;;;5008526;28;20156;-42
2022/06/01 05:45:43;;;;;;;20.70;18.58;;;21.80;1.00;;;;;;5005910;28;20383;-42
2022/06/01 05:48:11;;;;;;;20.70;18.50;;;21.90;1.00;;;;;;5014102;28;20448;-44
2022/06/01 05:50:37;;;;;;;19.70;17.60;;;22.00;1.00;;;;;;5014246;28;20018;-43
2022/06/01 05:53:03;;;;;;;23.40;19.20;;;22.00;1.00;;;;;;5011999;28;20034;-43
2022/06/01 05:55:29;;;;;;;20.27;18.35;;;22.00;1.00;;;;;;5010420;28;20031;-45
2022/06/01 05:57:55;;;;;;;22.05;17.83;;;22.00;1.00;;;;;;5012316;28;20408;-43
2022/06/01 06:00:21;;;;;;;20.58;18.50;;;22.10;1.00;;;;;;5014825;28;20030;-42
2022/06/01 06:02:47;;;;;;;20.92;18.65;;;22.10;1.00;;;;;;5013836;28;20097;-44
2022/06/01 06:07:57;;;;;;;;;;;22.10;1.00;;;;;;5003882;28;20506;-43
2022/06/01 06:10:23;;;;;;;20.90;18.75;;;22.10;1.00;;;;;;5012816;28;19910;-45
2022/06/01 06:12:49;;;;;;;22.80;20.20;;;22.10;1.00;;;;;;4999877;28;20025;-48
2022/06/01 06:15:16;;;;;;;22.95;20.10;;;22.20;1.00;;;;;;5013176;28;20141;-45
2022/06/01 06:17:41;;;;;;;24.92;20.25;;;22.20;1.00;;;;;;5012423;28;20050;-43
2022/06/01 06:20:08;;;;;;;29.52;20.75;;;22.20;1.00;;;;;;5011234;28;20041;-42
2022/06/01 06:22:34;;;;;;;22.33;19.05;;;22.20;1.00;;;;;;5012672;28;20068;-43
2022/06/01 06:24:59;;;;;;;21.48;19.23;;;22.30;1.00;;;;;;5014191;28;20030;-45
2022/06/01 06:27:27;;;;;;;24.45;21.05;;;22.30;1.00;;;;;;5007689;28;20045;-44
2022/06/01 06:29:53;;;;;;;27.45;21.52;;;22.30;1.00;;;;;;5001616;28;20392;-46
2022/06/01 06:32:19;;;;;;;22.05;19.75;;;22.40;1.00;;;;;;5004994;28;20038;-47
2022/06/01 06:34:44;;;;;;;24.30;21.70;;;22.40;1.00;;;;;;5013211;28;20030;-45
2022/06/01 06:37:10;;;;;;;23.02;20.45;;;22.40;1.00;;;;;;5010052;28;20037;-43
2022/06/01 06:39:36;;;;;;;22.25;19.98;;;22.50;1.00;;;;;;5013176;28;20018;-43
2022/06/01 06:42:01;;;;;;;25.83;21.67;;;22.50;1.00;;;;;;5011774;28;20034;-46
2022/06/01 06:44:27;;;;;;;23.63;20.98;;;22.50;1.00;;;;;;5007607;28;20109;-48
2022/06/01 06:46:53;;;;;;;24.20;21.67;;;22.50;1.00;;;;;;5011602;28;20103;-47
2022/06/01 06:49:18;;;;;;;25.15;20.52;;;22.40;1.00;;;;;;5010346;28;20037;-47
2022/06/01 06:51:44;;;;;;;22.65;19.83;;;22.50;1.00;;;;;;5013344;28;20124;-46
2022/06/01 06:54:10;;;;;;;22.98;20.52;;;22.50;1.00;;;;;;5012896;28;20021;-46
2022/06/01 06:56:36;;;;;;;24.92;21.60;;;22.50;1.00;;;;;;5012399;28;20056;-42
2022/06/01 06:59:03;;;;;;;25.35;22.75;;;22.50;1.00;;;;;;5012341;28;20532;-45
2022/06/01 07:01:29;;;;;;;23.65;21.02;;;22.50;1.00;;;;;;5013891;28;20022;-42
2022/06/01 07:03:55;;;;;;;24.60;21.60;;;22.60;1.00;;;;;;5012858;28;20133;-44
2022/06/01 07:06:21;;;;;;;26.40;22.00;;;22.60;1.00;;;;;;5013984;28;20025;-45
2022/06/01 07:08:50;;;;;;;26.60;21.77;;;22.60;1.00;;;;;;5009649;28;20104;-45
2022/06/01 07:11:18;;;;;;;26.92;21.77;;;22.60;1.00;;;;;;5005328;28;20109;-48
2022/06/01 07:13:45;;;;;;;24.30;21.55;;;22.70;1.00;;;;;;5003190;28;20481;-44
2022/06/01 07:16:14;;;;;;;30.23;23.00;;;22.70;1.00;;;;;;5004353;28;20095;-46
2022/06/01 07:18:43;;;;;;;30.02;25.45;;;22.80;1.00;;;;;;5011268;28;20022;-48
2022/06/01 07:21:10;;;;;;;29.63;24.58;;;22.80;1.00;;;;;;5008084;28;20099;-45
2022/06/01 07:23:37;;;;;;;29.88;26.02;;;22.80;1.00;;;;;;5011344;28;20108;-44
2022/06/01 07:26:05;;;;;;;29.75;26.58;;;22.90;1.00;;;;;;5013018;28;20026;-45
2022/06/01 07:28:31;;;;;;;27.83;24.95;;;22.90;1.00;;;;;;5012368;28;20038;-47
2022/06/01 07:30:57;;;;;;;28.48;24.67;;;23.00;1.00;;;;;;5006696;28;20022;-44
2022/06/01 07:33:28;;;;;;;30.83;25.23;;;23.00;1.00;;;;;;5011048;28;20424;-45
2022/06/01 07:35:57;;;;;;;31.58;26.00;;;23.10;1.00;;;;;;5013362;28;20100;-45
2022/06/01 07:43:54;;;;;;;33.20;27.20;;;23.20;1.00;;;;;;5012165;28;20064;-44
2022/06/01 07:46:20;;;;;;;34.78;29.98;;;23.20;1.00;;;;;;5010471;28;20065;-46
2022/06/01 07:48:47;;;;;;;36.53;28.23;;;23.20;1.00;;;;;;5011129;28;20116;-47
2022/06/01 07:51:13;;;;;;;34.35;30.67;;;23.20;1.00;;;;;;5013195;28;20073;-42
2022/06/01 07:53:45;;;;;;;35.00;30.88;;;23.20;1.00;;;;;;5010750;28;20431;-42
2022/06/01 07:56:10;;;;;;;34.08;30.40;;;23.30;1.00;;;;;;5005249;28;20049;-41
2022/06/01 07:58:36;;;;;;;38.22;31.02;;;23.30;1.00;;;;;;5010641;28;20420;-41
2022/06/01 08:01:03;;;;;;;30.60;26.75;;;23.40;1.00;;;;;;5011710;28;20384;-43
2022/06/01 08:03:28;;;;;;;35.17;29.63;;;23.50;1.00;;;;;;5012423;28;20018;-42
2022/06/01 08:05:54;;;;;;;31.98;28.73;;;23.50;1.00;;;;;;5006875;28;20023;-49
2022/06/01 08:08:20;;;;;;;33.28;29.83;;;23.50;1.00;;;;;;5005823;28;20038;-46
2022/06/01 08:10:46;;;;;;;30.73;27.52;;;23.60;1.00;;;;;;5012228;28;20117;-45
2022/06/01 08:13:14;;;;;;;32.95;27.73;;;23.60;1.00;;;;;;5011239;28;20041;-42
2022/06/01 08:15:45;;;;;;;33.58;29.70;;;23.70;1.00;;;;;;5011789;28;20022;-42
2022/06/01 08:18:14;;;;;;;33.25;29.67;;;23.70;1.00;;;;;;5012499;28;20057;-43
2022/06/01 08:20:40;;;;;;;36.38;31.38;;;23.70;1.00;;;;;;5011685;28;20117;-43
2022/06/01 08:23:07;;;;;;;34.05;30.42;;;23.70;1.00;;;;;;5010060;28;20112;-43
2022/06/01 08:25:33;;;;;;;36.05;29.38;;;23.80;1.00;;;;;;5010710;28;20554;-43
2022/06/01 08:27:59;;;;;;;37.20;29.55;;;23.90;1.00;;;;;;5012291;28;20503;-42
2022/06/01 08:30:26;;;;;;;31.73;27.33;;;23.90;1.00;;;;;;5011760;28;20041;-43
2022/06/01 08:32:54;;;;;;;35.45;30.17;;;23.90;1.00;;;;;;5007578;28;20023;-43
2022/06/01 08:35:29;;;;;;;37.10;29.58;;;24.00;1.00;;;;;;5011710;28;20479;-44
2022/06/01 08:37:57;;;;;;;34.90;29.63;;;24.00;1.00;;;;;;5012332;28;20483;-42
2022/06/01 08:40:26;;;;;;;35.75;32.05;;;24.00;1.00;;;;;;5011510;28;20033;-44
2022/06/01 08:43:01;;;;;;;39.72;33.78;;;24.00;1.00;;;;;;5010630;28;20035;-44
2022/06/01 08:45:27;;;;;;;38.25;32.88;;;24.10;1.00;;;;;;5011962;28;20034;-46
2022/06/01 08:47:53;;;;;;;35.90;30.10;;;24.10;1.00;;;;;;5012748;28;20034;-42
2022/06/01 08:50:25;;;;;;;35.55;31.70;;;24.10;1.00;;;;;;5010546;28;20110;-43
2022/06/01 08:52:53;;;;;;;33.03;29.65;;;24.10;1.00;;;;;;5007886;28;20064;-43
2022/06/01 08:55:19;;;;;;;35.97;28.80;;;24.10;1.00;;;;;;5006179;28;20037;-45
2022/06/01 08:58:00;;;;;;;34.22;30.83;;;24.20;1.00;;;;;;5012510;28;20384;-44
2022/06/01 09:00:29;;;;;;;33.08;28.90;;;24.30;1.00;;;;;;5011496;28;20083;-42
2022/06/01 09:03:13;;;;;;;33.85;29.80;;;24.40;1.00;;;;;;5004738;28;20037;-44
2022/06/01 09:05:57;;;;;;;38.42;34.33;;;24.50;1.00;;;;;;5010292;28;20074;-46
2022/06/01 09:08:41;;;;;;;34.92;31.17;;;24.60;1.00;;;;;;5011054;28;20124;-48
2022/06/01 09:11:18;;;;;;;37.60;32.30;;;24.60;1.00;;;;;;5007562;28;20345;-46
2022/06/01 09:14:02;;;;;;;36.30;32.03;;;24.70;1.00;;;;;;4998602;28;20034;-45
2022/06/01 09:16:40;;;;;;;33.72;30.23;;;24.80;1.00;;;;;;5014073;28;20042;-47
2022/06/01 09:19:14;;;;;;;32.97;28.08;;;24.80;1.00;;;;;;5012995;28;20061;-43
2022/06/01 09:24:34;;;;;;;35.63;31.83;;;24.90;1.00;;;;;;5014723;28;20404;-43
2022/06/01 09:27:02;;;;;;;33.50;30.17;;;25.00;1.00;;;;;;5015565;28;20038;-45
2022/06/01 09:29:32;;;;;;;35.80;31.13;;;25.00;1.00;;;;;;5011690;28;20022;-44
2022/06/01 09:32:07;;;;;;;36.88;30.30;;;25.00;1.00;;;;;;5007538;28;20025;-42
2022/06/01 09:34:46;;;;;;;33.97;29.00;;;25.00;1.00;;;;;;5010966;28;20045;-44
2022/06/01 09:37:20;;;;;;;35.10;31.30;;;25.10;1.00;;;;;;5029572;28;20023;-42
2022/06/01 09:39:56;;;;;;;31.88;28.55;;;25.10;1.00;;;;;;5012702;28;20072;-43
2022/06/01 09:42:25;;;;;;;31.45;27.23;;;25.10;1.00;;;;;;5012359;28;20045;-43
2022/06/01 09:44:53;;;;;;;31.63;28.42;;;25.10;1.00;;;;;;5006057;28;20018;-43
2022/06/01 09:47:36;;;;;;;36.58;32.30;;;25.00;1.00;;;;;;5013966;28;20088;-43
2022/06/01 09:50:05;;;;;;;34.28;30.67;;;25.10;1.00;;;;;;5012235;28;20028;-46
2022/06/01 09:52:38;;;;;;;32.60;29.00;;;25.10;1.00;;;;;;5007576;28;20026;-48
2022/06/01 09:55:16;;;;;;;33.53;30.13;;;25.20;1.00;;;;;;5009575;28;20021;-43
2022/06/01 09:57:42;;;;;;;36.33;31.52;;;25.20;1.00;;;;;;5013146;28;20030;-44
2022/06/01 10:06:31;;;;;;;32.13;28.85;;;25.40;1.00;;;;;;5011023;28;20491;-44
2022/06/01 10:09:09;;;;;;;30.23;27.17;;;25.50;1.00;;;;;;4984717;28;20460;-44
2022/06/01 10:11:40;;;;;;;35.30;27.13;;;25.60;1.00;;;;;;5003123;28;20045;-43
2022/06/01 10:14:12;;;;;;;27.70;24.70;;;25.80;1.00;;;;;;5013047;28;20041;-44
2022/06/01 10:16:56;;;;;;;27.95;25.17;;;25.90;1.00;;;;;;5011986;28;20042;-44
2022/06/01 10:19:52;;;;;;;29.05;26.23;;;26.00;1.00;;;;;;5014485;28;20029;-42
2022/06/01 10:22:27;;;;;;;28.05;25.23;;;26.00;1.00;;;;;;5008596;28;20100;-47
2022/06/01 10:24:57;;;;;;;27.83;24.90;;;26.00;1.00;;;;;;5006331;28;20041;-44
2022/06/01 10:27:30;;;;;;;27.42;24.48;;;26.10;1.00;;;;;;5012627;28;20092;-44
2022/06/01 10:30:18;;;;;;;27.50;24.83;;;26.30;1.00;;;;;;5013179;28;20814;-43
2022/06/01 10:33:03;;;;;;;31.13;23.30;;;26.40;1.00;;;;;;5014314;28;20376;-44
2022/06/01 10:35:51;;;;;;;27.92;24.33;;;26.50;1.00;;;;;;5013036;28;20084;-46
2022/06/01 10:38:30;;;;;;;25.23;19.33;;;26.60;1.00;;;;;;5019417;28;20136;-43
2022/06/01 10:41:02;;;;;;;22.17;20.00;;;26.80;1.00;;;;;;5010733;28;20022;-45
2022/06/01 10:43:46;;;;;;;21.90;19.60;;;26.80;1.00;;;;;;5014084;28;20376;-45
2022/06/01 10:46:25;;;;;;;19.42;17.52;;;27.00;1.00;;;;;;5012401;28;20087;-45
2022/06/01 10:49:15;;;;;;;21.90;19.95;;;27.10;1.00;;;;;;5014162;28;20078;-43
2022/06/01 10:51:41;;;;;;;19.92;17.92;;;27.20;1.00;;;;;;5012993;28;20063;-43
2022/06/01 10:54:22;;;;;;;21.35;19.23;;;27.20;1.00;;;;;;5014048;28;20022;-49
2022/06/01 10:56:48;;;;;;;17.60;15.15;;;27.30;1.00;;;;;;5010701;28;20101;-49
2022/06/01 10:59:16;;;;;;;16.45;14.93;;;27.40;1.00;;;;;;5014146;28;20026;-42
2022/06/01 11:01:54;;;;;;;19.85;17.92;;;27.50;1.00;;;;;;5012162;28;20041;-44
2022/06/01 11:04:32;;;;;;;16.02;14.40;;;27.70;1.00;;;;;;5012789;28;20069;-42
2022/06/01 11:07:00;;;;;;;16.85;15.45;;;27.60;1.00;;;;;;5011339;28;20033;-43
2022/06/01 11:09:25;;;;;;;14.27;13.07;;;27.90;1.00;;;;;;5011279;28;20106;-46
2022/06/01 11:11:51;;;;;;;18.27;16.38;;;28.00;1.00;;;;;;5011500;28;20114;-45
2022/06/01 11:14:31;;;;;;;15.30;12.80;;;28.10;1.00;;;;;;5013647;28;20030;-44
2022/06/01 11:17:02;;;;;;;15.40;13.93;;;28.10;1.00;;;;;;5011738;28;21456;-46
2022/06/01 11:19:48;;;;;;;13.57;12.43;;;28.30;1.00;;;;;;5013532;28;20049;-43
2022/06/01 11:22:22;;;;;;;14.63;12.90;;;28.50;1.00;;;;;;5011929;28;20026;-47
2022/06/01 11:25:03;;;;;;;13.98;12.60;;;28.70;1.00;;;;;;5013641;28;20026;-49
2022/06/01 11:27:33;;;;;;;16.77;15.18;;;28.30;1.00;;;;;;5002586;28;20507;-46
2022/06/01 11:30:08;;;;;;;16.30;14.80;;;28.20;1.00;;;;;;5012764;28;20459;-45
2022/06/01 11:32:58;;;;;;;18.88;16.98;;;28.10;1.00;;;;;;5007212;28;20036;-47
2022/06/01 11:35:37;;;;;;;15.27;12.88;;;27.90;1.00;;;;;;5007134;28;20026;-45
2022/06/01 11:38:12;;;;;;;15.70;14.10;;;28.10;1.00;;;;;;5010911;28;20025;-45
2022/06/01 11:40:58;;;;;;;16.77;14.65;;;28.70;1.00;;;;;;5007520;28;20080;-44
2022/06/01 11:43:39;;;;;;;15.05;13.57;;;29.40;1.00;;;;;;4999293;28;20125;-48
2022/06/01 11:46:13;;;;;;;13.18;11.88;;;30.00;1.00;;;;;;5006075;28;20025;-46
2022/06/01 11:48:46;;;;;;;14.07;12.43;;;30.20;1.00;;;;;;5013213;28;20120;-47
2022/06/01 11:51:16;;;;;;;12.93;11.23;;;30.40;1.00;;;;;;5011887;28;20416;-43
2022/06/01 11:53:41;;;;;;;14.20;12.63;;;30.30;1.00;;;;;;5007597;28;20049;-46
2022/06/01 11:56:45;;;;;;;13.60;11.18;;;29.90;1.00;;;;;;5010988;28;20026;-44
2022/06/01 11:59:28;;;;;;;14.07;11.50;;;30.50;1.00;;;;;;4951775;28;20053;-46
2022/06/01 12:01:58;;;;;;;12.13;11.10;;;30.60;1.00;;;;;;4999724;28;20038;-44
2022/06/01 12:04:51;;;;;;;12.07;10.85;;;30.90;1.00;;;;;;5013019;28;20022;-46
2022/06/01 12:07:49;;;;;;;12.27;11.07;;;30.80;1.00;;;;;;5009537;28;20061;-45
2022/06/01 12:10:23;;;;;;;11.20;10.07;;;30.70;1.00;;;;;;5011269;28;20026;-44
2022/06/01 12:12:54;;;;;;;10.93;9.82;;;30.70;1.00;;;;;;5012788;28;20561;-43
2022/06/01 12:15:41;;;;;;;11.52;10.50;;;30.00;1.00;;;;;;5011784;28;20075;-46
2022/06/01 12:18:12;;;;;;;8.95;7.95;;;29.80;1.00;;;;;;5012742;28;20185;-46
2022/06/01 12:20:38;;;;;;;9.02;8.20;;;29.40;1.00;;;;;;5003876;28;20064;-44
2022/06/01 12:28:45;;;;;;;;;;;29.10;1.00;;;;;;5012490;28;20567;-43
2022/06/01 12:31:17;;;;;;;9.50;7.00;;;29.00;1.00;;;;;;5010919;28;19909;-42
2022/06/01 12:34:01;;;;;;;7.43;6.82;;;28.80;1.00;;;;;;5012566;28;20539;-46
2022/06/01 12:36:51;;;;;;;8.90;6.82;;;29.80;1.00;;;;;;5011062;28;20042;-45
2022/06/01 12:39:27;;;;;;;8.27;7.53;;;30.50;1.00;;;;;;5009954;28;20037;-47
2022/06/01 12:42:01;;;;;;;8.52;6.68;;;30.10;1.00;;;;;;5010892;28;20038;-44
2022/06/01 12:44:27;;;;;;;7.53;6.90;;;30.00;1.00;;;;;;5012729;28;20117;-46
2022/06/01 12:46:54;;;;;;;11.63;6.80;;;30.10;1.00;;;;;;5006168;28;20046;-44
2022/06/01 12:49:37;;;;;;;7.72;6.22;;;30.60;1.00;;;;;;5014604;28;20103;-43
2022/06/01 12:52:05;;;;;;;7.72;7.18;;;29.90;1.00;;;;;;5006375;28;20058;-46
2022/06/01 12:54:35;;;;;;;8.43;7.57;;;29.40;1.00;;;;;;5016266;28;20030;-44
2022/06/01 12:57:03;;;;;;;7.13;6.28;;;30.80;1.00;;;;;;5008585;28;20038;-43
2022/06/01 12:59:30;;;;;;;5.35;4.70;;;33.50;1.00;;;;;;5012580;28;20365;-50
2022/06/01 13:02:04;;;;;;;8.55;6.88;;;35.60;1.00;;;;;;5012921;28;20026;-44
2022/06/01 13:04:30;;;;;;;7.95;6.35;;;36.20;1.00;;;;;;5016242;28;20026;-44
2022/06/01 13:06:56;;;;;;;8.48;6.13;;;35.00;1.00;;;;;;5011610;28;20029;-45
2022/06/01 13:09:29;;;;;;;7.80;6.50;;;34.50;1.00;;;;;;5009787;28;20062;-43
2022/06/01 13:18:42;;;;;;;6.72;5.88;;;34.30;1.00;;;;;;5004118;28;20057;-48
2022/06/01 13:21:17;;;;;;;7.13;5.93;;;34.30;1.00;;;;;;5014681;28;20049;-44
2022/06/01 13:23:45;;;;;;;7.43;5.93;;;34.20;1.00;;;;;;5004180;28;20059;-47
2022/06/01 13:26:15;;;;;;;6.07;5.57;;;34.40;1.00;;;;;;5014633;28;20109;-45
2022/06/01 13:28:46;;;;;;;7.22;5.88;;;33.10;1.00;;;;;;5013400;28;20440;-48
2022/06/01 13:31:12;;;;;;;7.95;6.13;;;32.50;1.00;;;;;;5014554;28;20052;-43
2022/06/01 13:33:41;;;;;;;8.15;6.13;;;32.10;1.00;;;;;;5015652;28;20030;-45
2022/06/01 13:36:28;;;;;;;6.38;5.50;;;31.70;1.00;;;;;;5014672;28;20057;-44
2022/06/01 13:39:08;;;;;;;6.65;5.60;;;31.50;1.00;;;;;;5013756;28;20100;-45